Time;durP1;ratioP1;P1;durP2;ratioP2;P2;SDS_P1;SDS_P2;PMS_P1;PMS_P2;Temp;Humidity;BMP_temperature;BMP_pressure;BME280_temperature;BME280_humidity;BME280_pressure;Samples;Min_cycle;Max_cycle;Signal;HPM_P1;HPM_P2
2022/09/14 00:01:48;;;;;;;;;;;21.00;62.10;;;;;;5108100;28;20468;-66
2022/09/14 00:04:15;;;;;;;;;;;21.00;62.10;;;;;;5074145;28;20007;-66
2022/09/14 00:06:41;;;;;;;;;;;21.00;62.10;;;;;;5075288;28;20066;-66
2022/09/14 00:09:09;;;;;;;;;;;21.00;62.20;;;;;;5107638;28;20054;-66
2022/09/14 00:11:35;;;;;;;;;;;21.00;62.20;;;;;;5107944;28;20375;-66
2022/09/14 00:14:01;;;;;;;;;;;21.00;62.20;;;;;;5108245;28;19927;-66
2022/09/14 00:16:29;;;;;;;;;;;21.00;62.20;;;;;;5107844;28;19920;-66
2022/09/14 00:18:56;;;;;;;;;;;21.00;62.20;;;;;;5075323;28;20372;-66
2022/09/14 00:21:22;;;;;;;;;;;20.90;62.20;;;;;;5107698;28;19925;-66
2022/09/14 00:23:47;;;;;;;;;;;20.90;62.10;;;;;;5057498;28;19924;-66
2022/09/14 00:26:15;;;;;;;;;;;20.90;62.20;;;;;;5074977;28;20279;-66
2022/09/14 00:28:41;;;;;;;;;;;20.90;62.20;;;;;;5107655;28;19931;-66
2022/09/14 00:31:08;;;;;;;;;;;20.90;62.20;;;;;;5107827;28;19943;-66
2022/09/14 00:33:33;;;;;;;;;;;20.90;62.30;;;;;;5107615;28;19924;-66
2022/09/14 00:36:03;;;;;;;;;;;20.90;62.20;;;;;;5107187;28;19928;-66
2022/09/14 00:38:28;;;;;;;;;;;20.90;62.30;;;;;;5107427;28;19924;-66
2022/09/14 00:40:56;;;;;;;;;;;20.90;62.20;;;;;;5073710;28;19920;-69
2022/09/14 00:43:22;;;;;;;;;;;20.90;62.20;;;;;;5074895;28;20011;-66
2022/09/14 00:45:47;;;;;;;;;;;20.90;62.30;;;;;;5074674;28;20422;-66
2022/09/14 00:48:13;;;;;;;;;;;20.80;62.20;;;;;;5107110;28;19960;-66
2022/09/14 00:50:38;;;;;;;;;;;20.80;62.30;;;;;;5074498;28;19920;-66
2022/09/14 00:53:04;;;;;;;;;;;20.80;62.20;;;;;;5107179;28;20088;-67
2022/09/14 00:55:30;;;;;;;;;;;20.80;62.20;;;;;;5107489;28;19959;-66
2022/09/14 00:57:55;;;;;;;;;;;20.80;62.20;;;;;;5074625;28;19920;-69
2022/09/14 01:00:23;;;;;;;;;;;20.80;62.20;;;;;;5073583;28;20296;-66
2022/09/14 01:02:48;;;;;;;;;;;20.90;63.00;;;;;;5106960;28;19921;-66
2022/09/14 01:05:15;;;;;;;;;;;20.80;62.30;;;;;;5072961;28;19927;-66
2022/09/14 01:08:00;;;;;;;;;;;20.80;62.30;;;;;;5106394;28;19930;-66
2022/09/14 01:16:22;;;;;;;;;;;20.80;62.30;;;;;;5089854;28;19956;-66
2022/09/14 01:18:54;;;;;;;;;;;20.80;62.30;;;;;;5088701;28;19920;-66
2022/09/14 01:21:23;;;;;;;;;;;20.80;62.30;;;;;;5088500;28;19921;-66
2022/09/14 01:24:10;;;;;;;;;;;20.80;62.40;;;;;;5088786;28;19920;-66
2022/09/14 01:26:47;;;;;;;;;;;20.70;62.30;;;;;;5088290;28;19970;-66
2022/09/14 01:29:15;;;;;;;;;;;20.70;62.30;;;;;;5089697;28;19920;-66
2022/09/14 01:31:46;;;;;;;;;;;20.70;62.30;;;;;;5088267;28;20375;-66
2022/09/14 01:34:15;;;;;;;;;;;20.70;62.30;;;;;;5089568;28;19924;-66
2022/09/14 01:36:42;;;;;;;;;;;20.70;62.30;;;;;;5089576;28;19920;-66
2022/09/14 01:39:08;;;;;;;;;;;20.70;62.30;;;;;;5089407;28;19920;-66
2022/09/14 01:41:35;;;;;;;;;;;20.70;62.30;;;;;;5089644;28;20284;-66
2022/09/14 01:44:04;;;;;;;;;;;20.70;62.30;;;;;;5088167;28;19927;-66
2022/09/14 01:46:37;;;;;;;;;;;20.70;62.30;;;;;;5088381;28;19920;-66
2022/09/14 01:51:45;;;;;;;;;;;20.70;62.30;;;;;;5089843;28;19999;-66
2022/09/14 01:54:15;;;;;;;;;;;20.70;62.30;;;;;;5088528;28;20367;-66
2022/09/14 01:56:45;;;;;;;;;;;20.70;62.40;;;;;;5088868;28;20375;-66
2022/09/14 01:59:14;;;;;;;;;;;20.60;62.30;;;;;;5105417;28;19920;-66
2022/09/14 02:01:42;;;;;;;;;;;20.70;62.30;;;;;;5088974;28;19921;-66
2022/09/14 02:04:10;;;;;;;;;;;20.60;62.30;;;;;;5088355;28;19920;-66
2022/09/14 02:06:39;;;;;;;;;;;20.60;62.30;;;;;;5087988;28;19924;-66
2022/09/14 02:09:06;;;;;;;;;;;20.60;62.40;;;;;;5088462;28;19920;-66
2022/09/14 02:11:32;;;;;;;;;;;20.60;62.40;;;;;;5089414;28;20384;-66
2022/09/14 02:13:57;;;;;;;;;;;20.60;62.40;;;;;;5088485;28;19920;-66
2022/09/14 02:16:24;;;;;;;;;;;20.60;62.40;;;;;;5088211;28;19921;-66
2022/09/14 02:18:49;;;;;;;;;;;20.60;62.30;;;;;;5088328;28;19985;-67
2022/09/14 02:21:16;;;;;;;;;;;20.60;62.40;;;;;;5088433;28;20368;-66
2022/09/14 02:23:42;;;;;;;;;;;20.60;62.40;;;;;;5087977;28;19920;-69
2022/09/14 02:26:08;;;;;;;;;;;20.60;62.50;;;;;;5088011;28;20051;-66
2022/09/14 02:28:34;;;;;;;;;;;20.60;62.40;;;;;;5089351;28;20329;-66
2022/09/14 02:31:19;;;;;;;;;;;20.60;62.40;;;;;;5087857;28;20017;-66
2022/09/14 02:36:49;;;;;;;;;;;20.50;62.40;;;;;;5110084;27;19912;-66
2022/09/14 02:42:18;;;;;;;;;;;20.50;62.40;;;;;;5089927;28;19919;-66
2022/09/14 02:47:33;;;;;;;;;;;20.50;62.40;;;;;;5110283;27;19934;-66
2022/09/14 02:50:06;;;;;;;;;;;20.50;62.40;;;;;;5109163;28;19920;-66
2022/09/14 02:55:15;;;;;;;;;;;20.50;62.40;;;;;;5089224;28;19912;-66
2022/09/14 02:58:01;;;;;;;;;;;20.50;62.50;;;;;;5088323;28;19927;-66
2022/09/14 03:00:28;;;;;;;;;;;20.50;62.40;;;;;;5088560;28;19946;-66
2022/09/14 03:02:53;;;;;;;;;;;20.50;62.40;;;;;;5088816;28;19966;-66
2022/09/14 03:05:20;;;;;;;;;;;20.50;62.40;;;;;;5088416;28;19924;-66
2022/09/14 03:07:45;;;;;;;;;;;20.50;62.50;;;;;;5088728;28;19943;-66
2022/09/14 03:10:11;;;;;;;;;;;20.50;62.50;;;;;;5088307;28;20435;-66
2022/09/14 03:12:37;;;;;;;;;;;20.50;62.50;;;;;;5088783;28;19973;-66
2022/09/14 03:15:03;;;;;;;;;;;20.50;62.50;;;;;;5088344;28;19924;-66
2022/09/14 03:17:28;;;;;;;;;;;20.50;62.50;;;;;;5089630;28;19920;-67
2022/09/14 03:19:54;;;;;;;;;;;20.40;62.40;;;;;;5088756;28;19924;-66
2022/09/14 03:22:19;;;;;;;;;;;20.40;62.40;;;;;;5088139;28;20299;-66
2022/09/14 03:24:45;;;;;;;;;;;20.40;62.40;;;;;;5089533;28;19920;-66
2022/09/14 03:27:10;;;;;;;;;;;20.40;62.40;;;;;;5088646;28;19925;-66
2022/09/14 03:29:36;;;;;;;;;;;20.40;62.50;;;;;;5087842;28;19920;-66
2022/09/14 03:32:01;;;;;;;;;;;20.40;62.40;;;;;;5088127;28;19920;-66
2022/09/14 03:34:27;;;;;;;;;;;20.40;62.40;;;;;;5089074;28;19928;-66
2022/09/14 03:36:52;;;;;;;;;;;20.40;62.50;;;;;;5089095;28;20344;-66
2022/09/14 03:39:18;;;;;;;;;;;20.40;62.40;;;;;;5088160;28;19921;-66
2022/09/14 03:41:43;;;;;;;;;;;20.40;62.40;;;;;;5089108;28;19924;-66
2022/09/14 03:44:09;;;;;;;;;;;20.40;62.40;;;;;;5089147;28;19965;-66
2022/09/14 03:46:34;;;;;;;;;;;20.40;62.40;;;;;;5087976;28;19973;-66
2022/09/14 03:49:00;;;;;;;;;;;20.40;62.50;;;;;;5087935;28;20280;-66
2022/09/14 03:51:26;;;;;;;;;;;20.40;62.50;;;;;;5088738;28;19920;-66
2022/09/14 03:53:51;;;;;;;;;;;20.40;62.50;;;;;;5087211;28;19924;-66
2022/09/14 03:56:18;;;;;;;;;;;20.40;62.50;;;;;;5088712;28;19927;-66
2022/09/14 03:58:44;;;;;;;;;;;20.40;62.50;;;;;;5088692;28;19924;-66
2022/09/14 04:01:13;;;;;;;;;;;20.30;62.40;;;;;;5087454;28;19928;-66
2022/09/14 04:03:39;;;;;;;;;;;20.40;62.40;;;;;;5086630;28;19920;-66
2022/09/14 04:06:05;;;;;;;;;;;20.40;62.50;;;;;;5077411;28;19939;-66
2022/09/14 04:08:33;;;;;;;;;;;20.40;62.50;;;;;;5073726;28;19972;-66
2022/09/14 04:10:59;;;;;;;;;;;20.40;62.40;;;;;;5073760;28;19924;-66
2022/09/14 04:13:24;;;;;;;;;;;20.40;62.50;;;;;;5073813;28;19934;-69
2022/09/14 04:16:05;;;;;;;;;;;20.40;62.50;;;;;;5073675;28;20010;-66
2022/09/14 04:18:30;;;;;;;;;;;20.40;62.40;;;;;;5073731;28;19921;-66
2022/09/14 04:20:58;;;;;;;;;;;20.40;62.50;;;;;;5074804;28;19927;-66
2022/09/14 04:23:24;;;;;;;;;;;20.40;62.50;;;;;;5074758;28;20749;-66
2022/09/14 04:25:50;;;;;;;;;;;20.40;62.50;;;;;;5073737;28;19921;-69
2022/09/14 04:28:16;;;;;;;;;;;20.30;62.40;;;;;;5074685;28;20418;-66
2022/09/14 04:30:41;;;;;;;;;;;20.30;62.40;;;;;;5073641;28;19920;-66
2022/09/14 04:33:07;;;;;;;;;;;20.30;62.40;;;;;;5073234;28;19928;-67
2022/09/14 04:35:32;;;;;;;;;;;20.30;62.40;;;;;;5073595;28;19928;-66
2022/09/14 04:37:58;;;;;;;;;;;20.30;62.50;;;;;;5074429;28;20330;-66
2022/09/14 04:40:23;;;;;;;;;;;20.30;62.40;;;;;;5090053;28;20568;-69
2022/09/14 04:42:49;;;;;;;;;;;20.30;62.40;;;;;;5074330;28;19947;-66
2022/09/14 04:45:14;;;;;;;;;;;20.30;62.40;;;;;;5074456;28;19925;-66
2022/09/14 04:47:40;;;;;;;;;;;20.30;62.40;;;;;;5073360;28;20288;-66
2022/09/14 04:50:06;;;;;;;;;;;20.30;62.40;;;;;;5072878;28;19928;-66
2022/09/14 04:52:32;;;;;;;;;;;20.30;62.40;;;;;;5074263;28;19928;-66
2022/09/14 04:54:57;;;;;;;;;;;20.30;62.40;;;;;;5090284;28;20357;-66
2022/09/14 04:57:23;;;;;;;;;;;20.30;62.50;;;;;;5093082;28;20287;-66
2022/09/14 04:59:48;;;;;;;;;;;20.30;62.40;;;;;;5093111;28;19920;-66
2022/09/14 05:02:14;;;;;;;;;;;20.40;62.50;;;;;;5094257;28;20364;-66
2022/09/14 05:04:41;;;;;;;;;;;20.40;62.50;;;;;;5076052;28;19926;-66
2022/09/14 05:07:06;;;;;;;;;;;20.30;62.40;;;;;;5075965;28;19920;-66
2022/09/14 05:09:32;;;;;;;;;;;20.30;62.40;;;;;;5076240;28;20006;-66
2022/09/14 05:11:57;;;;;;;;;;;20.20;62.40;;;;;;5093047;28;20340;-66
2022/09/14 05:14:23;;;;;;;;;;;20.30;62.50;;;;;;5093970;28;20279;-66
2022/09/14 05:16:48;;;;;;;;;;;20.20;62.30;;;;;;5092965;28;19959;-66
2022/09/14 05:19:17;;;;;;;;;;;20.30;62.40;;;;;;5093915;28;19924;-67
2022/09/14 05:21:43;;;;;;;;;;;20.30;62.50;;;;;;5075682;28;20372;-66
2022/09/14 05:24:13;;;;;;;;;;;20.30;62.40;;;;;;5092771;28;19927;-69
2022/09/14 05:26:39;;;;;;;;;;;20.30;62.40;;;;;;5075591;28;19920;-66
2022/09/14 05:29:05;;;;;;;;;;;20.30;62.40;;;;;;5093877;28;19924;-66
2022/09/14 05:31:31;;;;;;;;;;;20.30;62.40;;;;;;5093606;28;19920;-69
2022/09/14 05:33:57;;;;;;;;;;;20.30;62.40;;;;;;5075609;28;19935;-66
2022/09/14 05:36:22;;;;;;;;;;;20.30;62.40;;;;;;5075261;28;19920;-67
2022/09/14 05:38:48;;;;;;;;;;;20.30;62.40;;;;;;5071356;28;19920;-63
2022/09/14 05:41:14;;;;;;;;;;;20.30;62.40;;;;;;5072988;28;20398;-63
2022/09/14 05:43:40;;;;;;;;;;;20.30;62.10;;;;;;5074996;28;19920;-62
2022/09/14 05:46:08;;;;;;;;;;;20.30;61.90;;;;;;5092011;28;19932;-62
2022/09/14 05:48:35;;;;;;;;;;;20.40;61.80;;;;;;5092409;28;19924;-62
2022/09/14 05:51:02;;;;;;;;;;;20.40;61.80;;;;;;5092925;28;20422;-65
2022/09/14 05:53:28;;;;;;;;;;;20.40;61.60;;;;;;5092216;28;19924;-65
2022/09/14 05:58:41;;;;;;;;;;;20.50;61.70;;;;;;5100878;27;19923;-64
2022/09/14 06:03:48;;;;;;;;;;;20.50;61.50;;;;;;5082411;27;19916;-64
2022/09/14 06:06:15;;;;;;;;;;;20.50;61.50;;;;;;5093491;28;20402;-64
2022/09/14 06:08:41;;;;;;;;;;;20.50;61.40;;;;;;5054881;28;19921;-64
2022/09/14 06:11:10;;;;;;;;;;;20.50;61.30;;;;;;5087629;28;19975;-67
2022/09/14 06:13:36;;;;;;;;;;;20.50;61.30;;;;;;5077083;28;20535;-64
2022/09/14 06:16:03;;;;;;;;;;;20.50;61.30;;;;;;5075090;28;20016;-65
2022/09/14 06:18:29;;;;;;;;;;;20.50;61.30;;;;;;5048043;28;19928;-65
2022/09/14 06:20:55;;;;;;;;;;;20.50;61.30;;;;;;5050499;28;20006;-64
2022/09/14 06:23:20;;;;;;;;;;;20.50;61.20;;;;;;5054396;28;19929;-64
2022/09/14 06:25:46;;;;;;;;;;;20.60;61.20;;;;;;5054154;28;19973;-64
2022/09/14 06:28:11;;;;;;;;;;;20.60;61.10;;;;;;5052977;28;20430;-63
2022/09/14 06:30:37;;;;;;;;;;;20.60;61.10;;;;;;5087028;28;19924;-64
2022/09/14 06:33:03;;;;;;;;;;;20.50;61.00;;;;;;5053513;28;20045;-67
2022/09/14 06:35:29;;;;;;;;;;;20.60;61.10;;;;;;5056043;28;19930;-64
2022/09/14 06:37:54;;;;;;;;;;;20.60;61.20;;;;;;5055809;28;20347;-65
2022/09/14 06:40:20;;;;;;;;;;;20.60;61.10;;;;;;5052537;28;19935;-64
2022/09/14 06:42:45;;;;;;;;;;;20.70;61.20;;;;;;5052104;28;19929;-64
2022/09/14 06:45:11;;;;;;;;;;;20.70;61.20;;;;;;5052977;28;20339;-64
2022/09/14 06:47:36;;;;;;;;;;;20.70;61.20;;;;;;5089484;28;19968;-64
2022/09/14 06:50:02;;;;;;;;;;;20.80;61.10;;;;;;5050055;28;20021;-64
2022/09/14 06:52:27;;;;;;;;;;;20.80;61.10;;;;;;5054468;28;20503;-66
2022/09/14 06:54:53;;;;;;;;;;;20.80;61.10;;;;;;5057500;28;20528;-65
2022/09/14 06:57:18;;;;;;;;;;;20.90;61.20;;;;;;5089567;28;20369;-71
2022/09/14 06:59:44;;;;;;;;;;;20.90;61.10;;;;;;5057048;28;19925;-65
2022/09/14 07:02:12;;;;;;;;;;;20.90;61.00;;;;;;5059886;28;19963;-65
2022/09/14 07:04:37;;;;;;;;;;;21.00;61.00;;;;;;5075560;28;19924;-65
2022/09/14 07:07:03;;;;;;;;;;;21.00;61.10;;;;;;5056568;28;20645;-66
2022/09/14 07:09:30;;;;;;;;;;;21.10;61.10;;;;;;5051498;28;19927;-68
2022/09/14 07:11:55;;;;;;;;;;;21.00;61.10;;;;;;5056149;28;19928;-65
2022/09/14 07:14:21;;;;;;;;;;;21.10;61.20;;;;;;5045143;28;20323;-71
2022/09/14 07:16:46;;;;;;;;;;;21.10;61.20;;;;;;5039790;28;19935;-65
2022/09/14 07:19:13;;;;;;;;;;;21.10;61.20;;;;;;5047682;28;19920;-65
2022/09/14 07:21:39;;;;;;;;;;;21.10;61.30;;;;;;5039628;28;20326;-65
2022/09/14 07:24:04;;;;;;;;;;;21.10;61.40;;;;;;5040111;28;20630;-65
2022/09/14 07:26:31;;;;;;;;;;;21.10;61.30;;;;;;5078622;28;19931;-65
2022/09/14 07:28:59;;;;;;;;;;;21.10;61.30;;;;;;5046931;28;20462;-65
2022/09/14 07:31:26;;;;;;;;;;;21.20;61.30;;;;;;5075942;28;19952;-65
2022/09/14 07:33:54;;;;;;;;;;;21.20;61.20;;;;;;5039423;28;19921;-65
2022/09/14 07:36:20;;;;;;;;;;;21.10;61.10;;;;;;5062069;28;19935;-65
2022/09/14 07:38:46;;;;;;;;;;;21.20;61.00;;;;;;5061728;28;19925;-65
2022/09/14 07:41:11;;;;;;;;;;;21.20;61.00;;;;;;5061562;28;20292;-66
2022/09/14 07:43:37;;;;;;;;;;;21.20;61.00;;;;;;5076307;28;19932;-65
2022/09/14 07:46:03;;;;;;;;;;;21.30;61.10;;;;;;5075819;28;19928;-66
2022/09/14 07:48:29;;;;;;;;;;;21.30;61.20;;;;;;5046200;28;20002;-63
2022/09/14 07:50:58;;;;;;;;;;;21.30;61.20;;;;;;5038880;28;19968;-67
2022/09/14 07:53:24;;;;;;;;;;;21.30;61.30;;;;;;5075492;28;19940;-69
2022/09/14 07:55:49;;;;;;;;;;;21.30;61.40;;;;;;5046433;28;20383;-66
2022/09/14 07:58:15;;;;;;;;;;;21.30;61.40;;;;;;5044404;28;19936;-67
2022/09/14 08:00:40;;;;;;;;;;;21.30;61.40;;;;;;5062842;28;20015;-68
2022/09/14 08:03:07;;;;;;;;;;;21.30;61.30;;;;;;5058779;28;19928;-65
2022/09/14 08:05:33;;;;;;;;;;;21.40;61.30;;;;;;5055706;28;20412;-65
2022/09/14 08:07:58;;;;;;;;;;;21.40;61.30;;;;;;5054578;28;20001;-67
2022/09/14 08:10:25;;;;;;;;;;;21.40;61.40;;;;;;5076717;28;20012;-65
2022/09/14 08:12:51;;;;;;;;;;;21.40;61.30;;;;;;5042564;28;19925;-65
2022/09/14 08:15:17;;;;;;;;;;;21.40;61.20;;;;;;5042800;28;19920;-67
2022/09/14 08:17:42;;;;;;;;;;;21.40;61.30;;;;;;5078795;28;20407;-65
2022/09/14 08:20:08;;;;;;;;;;;21.40;61.30;;;;;;5057445;28;19921;-65
2022/09/14 08:22:34;;;;;;;;;;;21.40;61.30;;;;;;5060946;28;19998;-65
2022/09/14 08:24:59;;;;;;;;;;;21.40;61.30;;;;;;5056901;28;19986;-67
2022/09/14 08:27:25;;;;;;;;;;;21.50;61.40;;;;;;5060455;28;20365;-67
2022/09/14 08:29:50;;;;;;;;;;;21.40;61.40;;;;;;5059332;28;19935;-67
2022/09/14 08:32:16;;;;;;;;;;;21.50;61.50;;;;;;5058794;28;19928;-68
2022/09/14 08:34:41;;;;;;;;;;;21.40;61.60;;;;;;5063744;28;19927;-70
2022/09/14 08:37:09;;;;;;;;;;;21.40;61.70;;;;;;5078288;28;20320;-68
2022/09/14 08:39:34;;;;;;;;;;;21.50;61.70;;;;;;5057311;28;19947;-69
2022/09/14 08:42:00;;;;;;;;;;;21.50;61.80;;;;;;5039900;28;20384;-67
2022/09/14 08:44:28;;;;;;;;;;;21.50;61.90;;;;;;5041490;28;19953;-68
2022/09/14 08:47:02;;;;;;;;;;;21.50;61.90;;;;;;5052166;28;19932;-67
2022/09/14 08:49:38;;;;;;;;;;;21.50;61.90;;;;;;5056036;28;19931;-69
2022/09/14 08:52:04;;;;;;;;;;;21.60;62.10;;;;;;5072914;28;20705;-70
2022/09/14 08:54:30;;;;;;;;;;;21.60;62.20;;;;;;5053313;28;19935;-67
2022/09/14 08:57:01;;;;;;;;;;;21.60;62.20;;;;;;5068223;28;19928;-68
2022/09/14 09:02:30;;;;;;;;;;;21.60;62.10;;;;;;5044273;28;19921;-65
2022/09/14 09:05:00;;;;;;;;;;;21.70;62.10;;;;;;5044429;28;20007;-66
2022/09/14 09:07:47;;;;;;;;;;;21.70;62.00;;;;;;5051127;28;19920;-66
2022/09/14 09:10:13;;;;;;;;;;;21.70;61.90;;;;;;5057886;28;19936;-65
2022/09/14 09:12:42;;;;;;;;;;;21.70;62.10;;;;;;5053515;28;20292;-65
2022/09/14 09:15:15;;;;;;;;;;;21.70;62.20;;;;;;5049267;28;20695;-65
2022/09/14 09:17:44;;;;;;;;;;;21.80;62.20;;;;;;5045562;28;20292;-67
2022/09/14 09:20:12;;;;;;;;;;;21.80;62.70;;;;;;5045277;28;19952;-64
2022/09/14 09:22:40;;;;;;;;;;;21.80;62.40;;;;;;5059293;28;19986;-66
2022/09/14 09:25:12;;;;;;;;;;;21.80;62.50;;;;;;5046480;28;19958;-65
2022/09/14 09:27:37;;;;;;;;;;;21.90;62.50;;;;;;5042128;28;20019;-65
2022/09/14 09:30:03;;;;;;;;;;;21.90;62.30;;;;;;5051007;28;20031;-64
2022/09/14 09:32:29;;;;;;;;;;;21.90;62.00;;;;;;5048442;28;19925;-67
2022/09/14 09:34:54;;;;;;;;;;;21.90;61.90;;;;;;5060868;28;20339;-67
2022/09/14 09:37:21;;;;;;;;;;;21.90;61.70;;;;;;5068444;28;20352;-67
2022/09/14 09:39:48;;;;;;;;;;;21.90;61.70;;;;;;5048640;28;19925;-67
2022/09/14 09:42:18;;;;;;;;;;;21.90;61.70;;;;;;5053854;28;19929;-67
2022/09/14 09:45:00;;;;;;;;;;;21.90;61.50;;;;;;5057052;28;19947;-68
2022/09/14 09:52:54;;;;;;;;;;;21.90;61.40;;;;;;5070431;28;20573;-65
2022/09/14 09:55:21;;;;;;;;;;;21.90;61.30;;;;;;5052073;28;19929;-64
2022/09/14 09:57:47;;;;;;;;;;;21.90;61.30;;;;;;5050002;28;19924;-67
2022/09/14 10:02:54;;;;;;;;;;;22.00;61.10;;;;;;5088263;27;19924;-69
2022/09/14 10:05:21;;;;;;;;;;;22.00;61.10;;;;;;5083730;28;20015;-67
2022/09/14 10:13:23;;;;;;;;;;;22.00;60.90;;;;;;5090181;27;19921;-67
2022/09/14 10:15:49;;;;;;;;;;;22.00;60.80;;;;;;5082320;28;19924;-66
2022/09/14 10:18:16;;;;;;;;;;;22.00;60.80;;;;;;5067127;28;19931;-67
2022/09/14 10:20:44;;;;;;;;;;;22.00;60.70;;;;;;5066508;28;19928;-67
2022/09/14 10:28:53;;;;;;;;;;;22.10;60.80;;;;;;5057387;28;20305;-65
2022/09/14 10:33:58;;;;;;;;;;;22.10;60.90;;;;;;5102743;27;1856942;-65
2022/09/14 10:36:28;;;;;;;;;;;22.10;61.00;;;;;;5153972;27;19984;-65
2022/09/14 10:39:07;;;;;;;;;;;22.10;60.90;;;;;;5152071;27;19922;-65
2022/09/14 10:44:33;;;;;;;;;;;22.20;60.70;;;;;;5071175;28;19927;-66
2022/09/14 10:47:08;;;;;;;;;;;22.20;60.60;;;;;;5060792;28;20511;-66
2022/09/14 10:49:41;;;;;;;;;;;22.30;60.60;;;;;;5077800;28;20318;-68
2022/09/14 10:52:15;;;;;;;;;;;22.30;60.40;;;;;;5069654;28;19925;-67
2022/09/14 10:57:38;;;;;;;;;;;22.30;60.20;;;;;;5092446;27;20669;-69
2022/09/14 11:00:11;;;;;;;;;;;22.30;60.10;;;;;;5071129;28;20012;-66
2022/09/14 11:02:57;;;;;;;;;;;22.30;60.10;;;;;;5089355;28;19926;-70
2022/09/14 11:05:25;;;;;;;;;;;22.30;60.00;;;;;;5067547;28;19920;-69
2022/09/14 11:10:51;;;;;;;;;;;22.30;60.10;;;;;;5077493;28;19913;-68
2022/09/14 11:16:18;;;;;;;;;;;22.40;59.80;;;;;;5094949;27;19912;-67
2022/09/14 11:21:47;;;;;;;;;;;22.40;59.30;;;;;;5076917;28;20404;-66
2022/09/14 11:24:17;;;;;;;;;;;22.40;59.00;;;;;;5070569;28;19959;-65
2022/09/14 11:26:46;;;;;;;;;;;22.40;59.10;;;;;;5070180;28;20325;-67
2022/09/14 11:29:32;;;;;;;;;;;22.40;59.10;;;;;;5054455;28;20380;-68
2022/09/14 11:32:03;;;;;;;;;;;22.40;59.20;;;;;;5069723;28;19921;-66
2022/09/14 11:34:33;;;;;;;;;;;22.40;59.10;;;;;;5052755;28;19924;-67
2022/09/14 11:37:04;;;;;;;;;;;22.40;58.90;;;;;;5066386;28;20300;-68
2022/09/14 11:39:32;;;;;;;;;;;22.50;58.90;;;;;;5070926;28;20347;-67
2022/09/14 11:42:03;;;;;;;;;;;22.50;58.90;;;;;;5072237;28;20007;-68
2022/09/14 11:44:32;;;;;;;;;;;22.50;58.90;;;;;;5054072;28;20422;-67
2022/09/14 11:47:02;;;;;;;;;;;22.50;59.20;;;;;;5055737;28;20389;-66
2022/09/14 11:49:34;;;;;;;;;;;22.40;59.20;;;;;;5054694;28;19921;-64
2022/09/14 11:52:03;;;;;;;;;;;22.40;59.20;;;;;;5058417;28;19928;-68
2022/09/14 11:54:28;;;;;;;;;;;22.40;58.90;;;;;;5070042;28;19971;-71
2022/09/14 11:56:57;;;;;;;;;;;22.50;59.00;;;;;;5067298;28;20011;-68
2022/09/14 12:10:23;;;;;;;;;;;22.40;58.80;;;;;;5073612;28;19912;-66
2022/09/14 12:12:51;;;;;;;;;;;22.40;58.80;;;;;;5056298;28;19920;-66
2022/09/14 12:15:21;;;;;;;;;;;22.40;58.50;;;;;;5055328;28;19921;-66
2022/09/14 12:17:46;;;;;;;;;;;22.50;58.30;;;;;;5055384;28;20372;-67
2022/09/14 12:20:32;;;;;;;;;;;22.40;58.00;;;;;;5062603;28;19921;-67
2022/09/14 12:23:17;;;;;;;;;;;22.40;58.00;;;;;;5061477;28;19952;-68
2022/09/14 12:26:03;;;;;;;;;;;22.50;58.20;;;;;;5059214;28;19920;-69
2022/09/14 12:31:11;;;;;;;;;;;22.40;58.10;;;;;;5076076;28;19935;-67
2022/09/14 12:39:20;;;;;;;;;;;22.50;58.00;;;;;;5106610;27;19912;-66
2022/09/14 12:44:30;;;;;;;;;;;22.50;57.80;;;;;;5082973;28;19987;-68
2022/09/14 12:46:56;;;;;;;;;;;22.50;57.70;;;;;;5085912;28;19920;-67
2022/09/14 12:49:25;;;;;;;;;;;22.50;57.60;;;;;;5078330;28;19921;-68
2022/09/14 12:51:50;;;;;;;;;;;22.50;57.70;;;;;;5081495;28;19988;-72
2022/09/14 12:54:21;;;;;;;;;;;22.50;57.80;;;;;;5068406;28;20364;-67
2022/09/14 13:04:57;;;;;;;;;;;22.70;58.20;;;;;;5105653;27;19916;-69
2022/09/14 13:07:25;;;;;;;;;;;22.60;58.00;;;;;;5086974;28;19920;-71
2022/09/14 13:09:52;;;;;;;;;;;22.70;58.20;;;;;;5105627;28;19920;-73
2022/09/14 13:15:32;;;;;;;;;;;22.70;58.20;;;;;;5117745;27;1875958;-70
2022/09/14 13:18:00;;;;;;;;;;;22.60;57.80;;;;;;5133765;27;19925;-72
2022/09/14 13:20:25;;;;;;;;;;;22.70;57.80;;;;;;5149752;27;19992;-69
2022/09/14 13:22:51;;;;;;;;;;;22.70;57.50;;;;;;5151235;27;20384;-68
2022/09/14 13:25:33;;;;;;;;;;;22.70;57.70;;;;;;5150562;27;19918;-68
2022/09/14 13:28:03;;;;;;;;;;;22.70;57.60;;;;;;5146076;27;19962;-69
2022/09/14 13:30:29;;;;;;;;;;;22.70;57.70;;;;;;5147054;27;19923;-69
2022/09/14 13:32:56;;;;;;;;;;;22.70;57.70;;;;;;5150034;27;19964;-68
2022/09/14 13:35:41;;;;;;;;;;;22.70;57.20;;;;;;5151856;27;20017;-68
2022/09/14 13:38:08;;;;;;;;;;;22.70;57.30;;;;;;5170107;27;19919;-68
2022/09/14 13:40:34;;;;;;;;;;;22.70;57.30;;;;;;5170771;27;19919;-68
2022/09/14 13:43:00;;;;;;;;;;;22.60;57.30;;;;;;5169993;27;20324;-68
2022/09/14 13:45:26;;;;;;;;;;;22.60;57.30;;;;;;5151149;27;19923;-68
2022/09/14 13:47:52;;;;;;;;;;;22.60;57.40;;;;;;5150014;27;19923;-68
2022/09/14 13:50:22;;;;;;;;;;;22.50;57.50;;;;;;5165968;27;20362;-68
2022/09/14 13:52:47;;;;;;;;;;;22.50;57.50;;;;;;5146045;27;19918;-68
2022/09/14 13:58:20;;;;;;;;;;;22.50;57.70;;;;;;5088739;28;19912;-68
2022/09/14 14:00:47;;;;;;;;;;;22.50;57.70;;;;;;5088681;28;19927;-71
2022/09/14 14:03:19;;;;;;;;;;;22.40;57.70;;;;;;5087783;28;19959;-68
2022/09/14 14:05:45;;;;;;;;;;;22.40;57.80;;;;;;5086722;28;19920;-68
2022/09/14 14:08:25;;;;;;;;;;;22.40;57.80;;;;;;5086361;28;19926;-68
2022/09/14 14:10:52;;;;;;;;;;;22.40;57.80;;;;;;5086545;28;19921;-68
2022/09/14 14:13:26;;;;;;;;;;;22.40;57.90;;;;;;5087254;28;19943;-68
2022/09/14 14:15:53;;;;;;;;;;;22.40;58.00;;;;;;5085556;28;19977;-68
2022/09/14 14:18:39;;;;;;;;;;;22.30;58.00;;;;;;5085528;28;19921;-68
2022/09/14 14:21:15;;;;;;;;;;;22.30;58.00;;;;;;5096767;28;19928;-68
2022/09/14 14:23:41;;;;;;;;;;;22.30;58.00;;;;;;5087515;28;19924;-68
2022/09/14 14:26:10;;;;;;;;;;;22.30;58.00;;;;;;5088190;28;20388;-68
2022/09/14 14:28:36;;;;;;;;;;;22.30;58.10;;;;;;5086636;28;20135;-68
2022/09/14 14:31:03;;;;;;;;;;;22.30;58.10;;;;;;5086711;28;20116;-68
2022/09/14 14:33:29;;;;;;;;;;;22.30;58.20;;;;;;5087477;28;19920;-68
2022/09/14 14:35:55;;;;;;;;;;;22.30;58.10;;;;;;5088302;28;19969;-68
2022/09/14 14:38:23;;;;;;;;;;;22.30;58.20;;;;;;5087299;28;20280;-68
2022/09/14 14:40:50;;;;;;;;;;;22.30;58.20;;;;;;5088042;28;19920;-68
2022/09/14 14:43:17;;;;;;;;;;;22.30;58.20;;;;;;5088447;28;20640;-68
2022/09/14 14:45:43;;;;;;;;;;;22.20;58.20;;;;;;5088021;28;20280;-68
2022/09/14 14:48:10;;;;;;;;;;;22.20;58.20;;;;;;5087279;28;19927;-68
2022/09/14 14:50:36;;;;;;;;;;;22.20;58.20;;;;;;5087664;28;20564;-68
2022/09/14 14:53:02;;;;;;;;;;;22.20;58.20;;;;;;5086904;28;19924;-68
2022/09/14 14:55:31;;;;;;;;;;;22.20;58.20;;;;;;5086890;28;20364;-68
2022/09/14 14:57:59;;;;;;;;;;;22.20;58.20;;;;;;5086646;28;19969;-68
2022/09/14 15:00:24;;;;;;;;;;;22.20;58.30;;;;;;5086329;28;19963;-68
2022/09/14 15:02:50;;;;;;;;;;;22.20;58.30;;;;;;5087076;28;19979;-68
2022/09/14 15:05:16;;;;;;;;;;;22.10;58.30;;;;;;5086286;28;20339;-68
2022/09/14 15:07:42;;;;;;;;;;;22.20;58.30;;;;;;5082430;28;19928;-68
2022/09/14 15:10:10;;;;;;;;;;;22.10;58.30;;;;;;5072581;28;19943;-68
2022/09/14 15:12:35;;;;;;;;;;;22.20;58.30;;;;;;5073017;28;19920;-69
2022/09/14 15:15:01;;;;;;;;;;;22.20;58.40;;;;;;5072964;28;20489;-68
2022/09/14 15:17:26;;;;;;;;;;;22.10;58.30;;;;;;5074447;28;19947;-68
2022/09/14 15:19:52;;;;;;;;;;;22.10;58.30;;;;;;5089057;28;19931;-68
2022/09/14 15:22:18;;;;;;;;;;;22.20;58.40;;;;;;5073249;28;19921;-68
2022/09/14 15:24:44;;;;;;;;;;;22.20;58.40;;;;;;5072405;28;20277;-68
2022/09/14 15:27:09;;;;;;;;;;;22.10;58.30;;;;;;5072782;28;20290;-68
2022/09/14 15:29:35;;;;;;;;;;;22.10;58.30;;;;;;5073501;28;19921;-68
2022/09/14 15:32:00;;;;;;;;;;;22.20;58.40;;;;;;5073379;28;19925;-68
2022/09/14 15:34:26;;;;;;;;;;;22.20;58.40;;;;;;5072852;28;20288;-68
2022/09/14 15:36:52;;;;;;;;;;;22.10;58.30;;;;;;5072794;28;19928;-68
2022/09/14 15:39:20;;;;;;;;;;;22.20;58.40;;;;;;5072525;28;19920;-68
2022/09/14 15:41:46;;;;;;;;;;;22.10;58.30;;;;;;5072696;28;19924;-68
2022/09/14 15:44:12;;;;;;;;;;;22.10;58.20;;;;;;5072775;28;19969;-72
2022/09/14 15:46:39;;;;;;;;;;;22.10;58.20;;;;;;5073002;28;19925;-68
2022/09/14 15:49:06;;;;;;;;;;;22.10;58.30;;;;;;5071856;28;19921;-68
2022/09/14 15:51:32;;;;;;;;;;;22.10;58.30;;;;;;5072876;28;20359;-68
2022/09/14 15:53:59;;;;;;;;;;;22.10;58.20;;;;;;5073364;28;20387;-68
2022/09/14 15:56:25;;;;;;;;;;;22.10;58.20;;;;;;5072252;28;19924;-68
2022/09/14 15:58:50;;;;;;;;;;;22.10;58.30;;;;;;5072113;28;19920;-68
2022/09/14 16:01:16;;;;;;;;;;;22.10;58.30;;;;;;5073138;28;20015;-68